Bay City, MI

2:40 AM EDT on October 23, 2014 (GMT -0400)
Delta College | Change Station
CLOSE
Current Station
Personal Weather Station
Location: University Center, MI
Elevation: 637 ft
Nearby Weather Stations

Elev 637 ft 43.56 °N, 83.99 °W | Updated 48 seconds ago

Clear
Clear
33.7 °F
Feels Like 34 °F
N
0.0
Wind Variable Wind from NE
Gusts 1.0 mph

Today
High -- | Low -- °F
--% Chance of Precip.
Yesterday
High -- | Low -- °F
Precip. -- in
7:59 AM 6:39 PM
Waning Crescent, 0% visible
Pressure 30.32 in
Visibility 10.0 miles
Clouds Clear
Windchill 34 °F
Dew Point 32 °F
Humidity 95%
Rainfall 0.00 in
Snow Depth Not available.
UV 0 out of 12
Pollen .80 out of 12
PM2.5 Good
Flu Activity Sporadic
METAR KMBS 230553Z 28003KT 10SM CLR 02/00 A3030 RMK AO2 SLP267 T00220000 10083 20017 56005

More Conditions Fewer Conditions

Pressure 30.32 in
Visibility 10.0 miles
Clouds Clear
Windchill 34 °F
Dew Point 32 °F
Humidity 95%
Rainfall 0.00 in
Snow Depth Not available.
UV 0 out of 12
Pollen .80 out of 12
PM2.5 Good
Flu Activity Sporadic
METAR KMBS 230553Z 28003KT 10SM CLR 02/00 A3030 RMK AO2 SLP267 T00220000 10083 20017 56005

More Conditions Fewer Conditions

10-Day Weather Forecast

Almanac

Astronomy

Oct. 23, 2014 Rise Set
Actual Time 7:59 AM EDT 6:39 PM EDT
Civil Twilight 7:30 AM EDT 7:08 PM EDT
Nautical Twilight 6:57 AM EDT 7:42 PM EDT
Astronomical Twilight 6:23 AM EDT 8:15 PM EDT
Moon 7:37 AM EDT 6:40 PM EDT
Length of Visible Light 11h 38m
Length of Day
10h 39m
Tomorrow will be 2m 48s shorter.
Waning Crescent, 0% of the Moon is Illuminated
Today
Waning Crescent
Oct 23
New
Oct 30
First Quarter
Nov 6
Full
Nov 14
Last Quarter

Today's Extremes

State Highs State Lows

Community

WunderPhotos

Upload Photos

1,764,194 photos uploaded!

Nearby

Air Quality

  Air Quality AQ Index Pollutant
Yesterday Good
PM2.5
Current Good
PM2.5
Thursday Good
PM2.5
Friday Good
PM2.5
Saturday Good
PM2.5
Sunday Good
PM2.5
Monday Good
PM2.5

Snow Depth

Station Depth Elevation
No new snow has been reported.

Earthquake Activity

City Distance Mag. Time & Date
No recent earthquake activity has been reported nearby.
Minimum magnitude displayed is 2.5.

Coastal Water Temperatures

Place Temperature
Harbor Beach, MI 48.9 °F

Nearby Weather Stations